sensor_id;sensor_type;location;lat;lon;timestamp;P1;durP1;ratioP1;P2;durP2;ratioP2
71769;SDS011;66386;52.122;5.420;2023-06-14T00:02:18;2.30;;;1.88;;
71769;SDS011;66386;52.122;5.420;2023-06-14T00:04:45;4.85;;;1.75;;
71769;SDS011;66386;52.122;5.420;2023-06-14T00:07:14;4.38;;;1.70;;
71769;SDS011;66386;52.122;5.420;2023-06-14T00:09:42;3.30;;;1.83;;
71769;SDS011;66386;52.122;5.420;2023-06-14T00:12:09;2.22;;;1.73;;
71769;SDS011;66386;52.122;5.420;2023-06-14T00:14:36;2.47;;;1.77;;
71769;SDS011;66386;52.122;5.420;2023-06-14T00:17:02;3.45;;;1.60;;
71769;SDS011;66386;52.122;5.420;2023-06-14T00:19:29;5.70;;;1.83;;
71769;SDS011;66386;52.122;5.420;2023-06-14T00:21:59;7.20;;;1.63;;
71769;SDS011;66386;52.122;5.420;2023-06-14T00:24:26;4.75;;;1.52;;
71769;SDS011;66386;52.122;5.420;2023-06-14T00:26:52;5.47;;;1.77;;
71769;SDS011;66386;52.122;5.420;2023-06-14T00:29:19;3.30;;;2.00;;
71769;SDS011;66386;52.122;5.420;2023-06-14T00:31:45;1.90;;;1.48;;
71769;SDS011;66386;52.122;5.420;2023-06-14T00:34:12;3.60;;;1.60;;
71769;SDS011;66386;52.122;5.420;2023-06-14T00:36:38;2.38;;;1.60;;
71769;SDS011;66386;52.122;5.420;2023-06-14T00:39:05;3.13;;;1.60;;
71769;SDS011;66386;52.122;5.420;2023-06-14T00:41:31;4.65;;;1.58;;
71769;SDS011;66386;52.122;5.420;2023-06-14T00:43:58;4.15;;;1.50;;
71769;SDS011;66386;52.122;5.420;2023-06-14T00:46:26;8.30;;;1.70;;
71769;SDS011;66386;52.122;5.420;2023-06-14T00:48:52;5.93;;;2.17;;
71769;SDS011;66386;52.122;5.420;2023-06-14T00:51:21;3.78;;;1.80;;
71769;SDS011;66386;52.122;5.420;2023-06-14T00:53:48;4.68;;;1.60;;
71769;SDS011;66386;52.122;5.420;2023-06-14T00:56:15;3.72;;;1.77;;
71769;SDS011;66386;52.122;5.420;2023-06-14T00:58:42;3.83;;;1.97;;
71769;SDS011;66386;52.122;5.420;2023-06-14T01:01:09;2.70;;;1.63;;
71769;SDS011;66386;52.122;5.420;2023-06-14T01:03:36;3.10;;;1.65;;
71769;SDS011;66386;52.122;5.420;2023-06-14T01:11:54;3.30;;;1.30;;
71769;SDS011;66386;52.122;5.420;2023-06-14T01:14:44;7.85;;;1.58;;
71769;SDS011;66386;52.122;5.420;2023-06-14T01:17:11;3.63;;;1.50;;
71769;SDS011;66386;52.122;5.420;2023-06-14T01:19:43;6.07;;;2.40;;
71769;SDS011;66386;52.122;5.420;2023-06-14T01:22:10;4.20;;;1.90;;
71769;SDS011;66386;52.122;5.420;2023-06-14T01:24:37;4.07;;;1.80;;
71769;SDS011;66386;52.122;5.420;2023-06-14T01:27:05;3.00;;;1.80;;
71769;SDS011;66386;52.122;5.420;2023-06-14T01:29:33;3.20;;;1.33;;
71769;SDS011;66386;52.122;5.420;2023-06-14T01:32:02;1.95;;;1.40;;
71769;SDS011;66386;52.122;5.420;2023-06-14T01:34:30;2.75;;;1.50;;
71769;SDS011;66386;52.122;5.420;2023-06-14T01:36:58;4.40;;;1.50;;
71769;SDS011;66386;52.122;5.420;2023-06-14T01:39:27;3.17;;;1.70;;
71769;SDS011;66386;52.122;5.420;2023-06-14T01:41:54;3.30;;;1.60;;
71769;SDS011;66386;52.122;5.420;2023-06-14T01:44:21;4.90;;;1.67;;
71769;SDS011;66386;52.122;5.420;2023-06-14T01:46:49;3.05;;;1.60;;
71769;SDS011;66386;52.122;5.420;2023-06-14T01:49:15;5.53;;;1.50;;
71769;SDS011;66386;52.122;5.420;2023-06-14T01:51:42;8.60;;;1.60;;
71769;SDS011;66386;52.122;5.420;2023-06-14T01:54:09;4.63;;;1.42;;
71769;SDS011;66386;52.122;5.420;2023-06-14T01:56:35;3.35;;;1.52;;
71769;SDS011;66386;52.122;5.420;2023-06-14T01:59:02;4.05;;;1.50;;
71769;SDS011;66386;52.122;5.420;2023-06-14T02:01:28;7.73;;;1.67;;
71769;SDS011;66386;52.122;5.420;2023-06-14T02:03:55;3.90;;;1.50;;
71769;SDS011;66386;52.122;5.420;2023-06-14T02:06:21;3.72;;;2.28;;
71769;SDS011;66386;52.122;5.420;2023-06-14T02:08:48;3.15;;;1.30;;
71769;SDS011;66386;52.122;5.420;2023-06-14T02:11:14;6.20;;;1.50;;
71769;SDS011;66386;52.122;5.420;2023-06-14T02:13:41;4.33;;;1.37;;
71769;SDS011;66386;52.122;5.420;2023-06-14T02:16:08;3.03;;;1.45;;
71769;SDS011;66386;52.122;5.420;2023-06-14T02:18:34;2.17;;;1.40;;
71769;SDS011;66386;52.122;5.420;2023-06-14T02:21:02;4.38;;;1.80;;
71769;SDS011;66386;52.122;5.420;2023-06-14T02:23:28;2.88;;;1.42;;
71769;SDS011;66386;52.122;5.420;2023-06-14T02:25:57;5.00;;;1.60;;
71769;SDS011;66386;52.122;5.420;2023-06-14T02:28:23;3.65;;;1.50;;
71769;SDS011;66386;52.122;5.420;2023-06-14T02:30:50;3.70;;;1.45;;
71769;SDS011;66386;52.122;5.420;2023-06-14T02:33:17;3.40;;;1.70;;
71769;SDS011;66386;52.122;5.420;2023-06-14T02:35:44;2.10;;;1.25;;
71769;SDS011;66386;52.122;5.420;2023-06-14T02:38:10;2.30;;;1.50;;
71769;SDS011;66386;52.122;5.420;2023-06-14T02:40:37;5.03;;;1.27;;
71769;SDS011;66386;52.122;5.420;2023-06-14T02:43:04;3.55;;;1.60;;
71769;SDS011;66386;52.122;5.420;2023-06-14T02:45:31;2.63;;;1.30;;
71769;SDS011;66386;52.122;5.420;2023-06-14T02:47:57;2.95;;;1.45;;
71769;SDS011;66386;52.122;5.420;2023-06-14T02:50:24;4.40;;;1.43;;
71769;SDS011;66386;52.122;5.420;2023-06-14T02:52:50;2.10;;;1.40;;
71769;SDS011;66386;52.122;5.420;2023-06-14T02:55:18;5.13;;;1.70;;
71769;SDS011;66386;52.122;5.420;2023-06-14T02:57:45;4.10;;;1.50;;
71769;SDS011;66386;52.122;5.420;2023-06-14T03:00:13;4.20;;;1.23;;
71769;SDS011;66386;52.122;5.420;2023-06-14T03:02:41;2.53;;;1.47;;
71769;SDS011;66386;52.122;5.420;2023-06-14T03:05:09;3.72;;;1.33;;
71769;SDS011;66386;52.122;5.420;2023-06-14T03:07:36;3.92;;;1.55;;
71769;SDS011;66386;52.122;5.420;2023-06-14T03:10:08;3.25;;;1.63;;
71769;SDS011;66386;52.122;5.420;2023-06-14T03:12:35;3.58;;;1.85;;
71769;SDS011;66386;52.122;5.420;2023-06-14T03:15:03;5.87;;;1.83;;
71769;SDS011;66386;52.122;5.420;2023-06-14T03:17:30;2.30;;;1.20;;
71769;SDS011;66386;52.122;5.420;2023-06-14T03:19:59;3.97;;;1.70;;
71769;SDS011;66386;52.122;5.420;2023-06-14T03:22:26;2.63;;;1.25;;
71769;SDS011;66386;52.122;5.420;2023-06-14T03:24:52;2.30;;;1.40;;
71769;SDS011;66386;52.122;5.420;2023-06-14T03:27:20;4.60;;;1.40;;
71769;SDS011;66386;52.122;5.420;2023-06-14T03:29:47;2.47;;;1.50;;
71769;SDS011;66386;52.122;5.420;2023-06-14T03:32:14;3.80;;;1.48;;
71769;SDS011;66386;52.122;5.420;2023-06-14T03:34:40;4.18;;;1.38;;
71769;SDS011;66386;52.122;5.420;2023-06-14T03:37:07;5.25;;;1.60;;
71769;SDS011;66386;52.122;5.420;2023-06-14T03:39:34;4.17;;;1.13;;
71769;SDS011;66386;52.122;5.420;2023-06-14T03:42:00;4.60;;;1.65;;
71769;SDS011;66386;52.122;5.420;2023-06-14T03:44:28;3.67;;;1.40;;
71769;SDS011;66386;52.122;5.420;2023-06-14T03:46:54;2.90;;;1.63;;
71769;SDS011;66386;52.122;5.420;2023-06-14T03:49:21;3.25;;;1.20;;
71769;SDS011;66386;52.122;5.420;2023-06-14T03:51:48;5.03;;;1.50;;
71769;SDS011;66386;52.122;5.420;2023-06-14T03:54:17;3.92;;;1.63;;
71769;SDS011;66386;52.122;5.420;2023-06-14T03:57:04;4.25;;;1.90;;
71769;SDS011;66386;52.122;5.420;2023-06-14T03:59:32;2.70;;;1.60;;
71769;SDS011;66386;52.122;5.420;2023-06-14T04:01:58;8.43;;;2.10;;
71769;SDS011;66386;52.122;5.420;2023-06-14T04:04:25;3.07;;;1.30;;
71769;SDS011;66386;52.122;5.420;2023-06-14T04:06:55;2.05;;;1.30;;
71769;SDS011;66386;52.122;5.420;2023-06-14T04:09:27;3.85;;;1.27;;
71769;SDS011;66386;52.122;5.420;2023-06-14T04:11:53;4.35;;;1.55;;
71769;SDS011;66386;52.122;5.420;2023-06-14T04:14:20;3.42;;;1.67;;
71769;SDS011;66386;52.122;5.420;2023-06-14T04:16:46;3.33;;;1.73;;
71769;SDS011;66386;52.122;5.420;2023-06-14T04:19:14;3.95;;;1.40;;
71769;SDS011;66386;52.122;5.420;2023-06-14T04:21:42;3.13;;;1.45;;
71769;SDS011;66386;52.122;5.420;2023-06-14T04:24:09;3.85;;;1.23;;
71769;SDS011;66386;52.122;5.420;2023-06-14T04:26:41;4.13;;;1.55;;
71769;SDS011;66386;52.122;5.420;2023-06-14T04:29:11;3.17;;;1.73;;
71769;SDS011;66386;52.122;5.420;2023-06-14T04:31:40;3.80;;;1.80;;
71769;SDS011;66386;52.122;5.420;2023-06-14T04:34:07;2.67;;;1.50;;
71769;SDS011;66386;52.122;5.420;2023-06-14T04:36:34;2.85;;;1.48;;
71769;SDS011;66386;52.122;5.420;2023-06-14T04:39:03;4.80;;;1.65;;
71769;SDS011;66386;52.122;5.420;2023-06-14T04:41:30;4.03;;;1.40;;
71769;SDS011;66386;52.122;5.420;2023-06-14T04:43:58;4.65;;;1.70;;
71769;SDS011;66386;52.122;5.420;2023-06-14T04:46:28;3.85;;;2.00;;
71769;SDS011;66386;52.122;5.420;2023-06-14T04:48:55;2.15;;;1.30;;
71769;SDS011;66386;52.122;5.420;2023-06-14T04:51:23;5.90;;;2.00;;
71769;SDS011;66386;52.122;5.420;2023-06-14T04:53:56;5.30;;;1.30;;
71769;SDS011;66386;52.122;5.420;2023-06-14T04:56:25;3.22;;;1.30;;
71769;SDS011;66386;52.122;5.420;2023-06-14T04:58:52;2.60;;;1.60;;
71769;SDS011;66386;52.122;5.420;2023-06-14T05:01:22;3.25;;;1.77;;
71769;SDS011;66386;52.122;5.420;2023-06-14T05:03:52;3.13;;;1.48;;
71769;SDS011;66386;52.122;5.420;2023-06-14T05:06:19;5.93;;;1.70;;
71769;SDS011;66386;52.122;5.420;2023-06-14T05:08:45;2.50;;;1.52;;
71769;SDS011;66386;52.122;5.420;2023-06-14T05:11:12;3.53;;;1.38;;
71769;SDS011;66386;52.122;5.420;2023-06-14T05:13:39;3.35;;;1.88;;
71769;SDS011;66386;52.122;5.420;2023-06-14T05:16:07;5.35;;;1.80;;
71769;SDS011;66386;52.122;5.420;2023-06-14T05:18:33;4.47;;;1.60;;
71769;SDS011;66386;52.122;5.420;2023-06-14T05:21:01;3.60;;;1.60;;
71769;SDS011;66386;52.122;5.420;2023-06-14T05:23:28;3.88;;;1.67;;
71769;SDS011;66386;52.122;5.420;2023-06-14T05:25:54;4.57;;;1.88;;
71769;SDS011;66386;52.122;5.420;2023-06-14T05:28:21;5.20;;;1.67;;
71769;SDS011;66386;52.122;5.420;2023-06-14T05:30:47;3.90;;;1.10;;
71769;SDS011;66386;52.122;5.420;2023-06-14T05:33:14;6.25;;;1.80;;
71769;SDS011;66386;52.122;5.420;2023-06-14T05:35:40;4.43;;;1.60;;
71769;SDS011;66386;52.122;5.420;2023-06-14T05:38:07;5.93;;;1.70;;
71769;SDS011;66386;52.122;5.420;2023-06-14T05:40:34;5.10;;;1.55;;
71769;SDS011;66386;52.122;5.420;2023-06-14T05:43:00;5.73;;;1.63;;
71769;SDS011;66386;52.122;5.420;2023-06-14T05:45:27;3.30;;;1.92;;
71769;SDS011;66386;52.122;5.420;2023-06-14T05:47:54;3.42;;;1.80;;
71769;SDS011;66386;52.122;5.420;2023-06-14T05:50:23;2.20;;;1.42;;
71769;SDS011;66386;52.122;5.420;2023-06-14T05:52:49;3.45;;;1.70;;
71769;SDS011;66386;52.122;5.420;2023-06-14T05:55:16;2.40;;;1.40;;
71769;SDS011;66386;52.122;5.420;2023-06-14T05:57:44;6.05;;;2.10;;
71769;SDS011;66386;52.122;5.420;2023-06-14T06:00:10;5.63;;;1.83;;
71769;SDS011;66386;52.122;5.420;2023-06-14T06:02:40;3.47;;;1.83;;
71769;SDS011;66386;52.122;5.420;2023-06-14T06:05:10;3.88;;;1.70;;
71769;SDS011;66386;52.122;5.420;2023-06-14T06:07:37;3.80;;;1.97;;
71769;SDS011;66386;52.122;5.420;2023-06-14T06:10:06;3.35;;;1.85;;
71769;SDS011;66386;52.122;5.420;2023-06-14T06:12:33;3.33;;;2.13;;
71769;SDS011;66386;52.122;5.420;2023-06-14T06:15:00;3.33;;;2.15;;
71769;SDS011;66386;52.122;5.420;2023-06-14T06:17:26;2.30;;;2.00;;
71769;SDS011;66386;52.122;5.420;2023-06-14T06:20:07;3.63;;;1.87;;
71769;SDS011;66386;52.122;5.420;2023-06-14T06:22:35;4.35;;;2.20;;
71769;SDS011;66386;52.122;5.420;2023-06-14T06:25:02;4.80;;;2.40;;
71769;SDS011;66386;52.122;5.420;2023-06-14T06:27:29;4.95;;;2.03;;
71769;SDS011;66386;52.122;5.420;2023-06-14T06:29:55;6.07;;;2.67;;
71769;SDS011;66386;52.122;5.420;2023-06-14T06:32:22;5.53;;;2.33;;
71769;SDS011;66386;52.122;5.420;2023-06-14T06:34:48;2.50;;;2.15;;
71769;SDS011;66386;52.122;5.420;2023-06-14T06:37:15;4.20;;;2.08;;
71769;SDS011;66386;52.122;5.420;2023-06-14T06:39:41;3.40;;;2.30;;
71769;SDS011;66386;52.122;5.420;2023-06-14T06:42:08;4.25;;;2.63;;
71769;SDS011;66386;52.122;5.420;2023-06-14T06:44:34;5.43;;;2.23;;
71769;SDS011;66386;52.122;5.420;2023-06-14T06:47:01;2.70;;;2.35;;
71769;SDS011;66386;52.122;5.420;2023-06-14T06:49:28;4.00;;;2.47;;
71769;SDS011;66386;52.122;5.420;2023-06-14T06:52:05;4.72;;;2.53;;
71769;SDS011;66386;52.122;5.420;2023-06-14T06:54:33;4.70;;;2.33;;
71769;SDS011;66386;52.122;5.420;2023-06-14T06:57:00;2.87;;;2.33;;
71769;SDS011;66386;52.122;5.420;2023-06-14T06:59:30;2.85;;;2.30;;
71769;SDS011;66386;52.122;5.420;2023-06-14T07:01:56;4.45;;;2.33;;
71769;SDS011;66386;52.122;5.420;2023-06-14T07:04:23;3.85;;;2.50;;
71769;SDS011;66386;52.122;5.420;2023-06-14T07:06:50;3.60;;;2.60;;
71769;SDS011;66386;52.122;5.420;2023-06-14T07:09:16;4.53;;;2.63;;
71769;SDS011;66386;52.122;5.420;2023-06-14T07:11:43;3.45;;;2.95;;
71769;SDS011;66386;52.122;5.420;2023-06-14T07:14:11;4.07;;;2.50;;
71769;SDS011;66386;52.122;5.420;2023-06-14T07:16:38;4.13;;;2.42;;
71769;SDS011;66386;52.122;5.420;2023-06-14T07:19:05;4.10;;;2.50;;
71769;SDS011;66386;52.122;5.420;2023-06-14T07:21:31;6.13;;;2.50;;
71769;SDS011;66386;52.122;5.420;2023-06-14T07:23:58;4.60;;;2.35;;
71769;SDS011;66386;52.122;5.420;2023-06-14T07:26:24;2.45;;;2.25;;
71769;SDS011;66386;52.122;5.420;2023-06-14T07:28:51;2.53;;;2.33;;
71769;SDS011;66386;52.122;5.420;2023-06-14T07:31:18;3.85;;;2.40;;
71769;SDS011;66386;52.122;5.420;2023-06-14T07:33:45;2.13;;;2.00;;
71769;SDS011;66386;52.122;5.420;2023-06-14T07:36:12;3.85;;;2.13;;
71769;SDS011;66386;52.122;5.420;2023-06-14T07:38:38;6.53;;;2.25;;
71769;SDS011;66386;52.122;5.420;2023-06-14T07:41:07;3.10;;;1.95;;
71769;SDS011;66386;52.122;5.420;2023-06-14T07:43:34;5.05;;;2.28;;
71769;SDS011;66386;52.122;5.420;2023-06-14T07:46:00;2.70;;;1.77;;
71769;SDS011;66386;52.122;5.420;2023-06-14T07:48:33;1.90;;;1.65;;
71769;SDS011;66386;52.122;5.420;2023-06-14T07:51:00;2.85;;;2.15;;
71769;SDS011;66386;52.122;5.420;2023-06-14T07:53:27;2.30;;;1.70;;
71769;SDS011;66386;52.122;5.420;2023-06-14T07:55:54;6.07;;;2.10;;
71769;SDS011;66386;52.122;5.420;2023-06-14T07:58:21;1.87;;;1.70;;
71769;SDS011;66386;52.122;5.420;2023-06-14T08:00:47;2.15;;;1.90;;
71769;SDS011;66386;52.122;5.420;2023-06-14T08:03:14;3.10;;;1.75;;
71769;SDS011;66386;52.122;5.420;2023-06-14T08:05:41;2.05;;;1.90;;
71769;SDS011;66386;52.122;5.420;2023-06-14T08:08:07;3.42;;;1.90;;
71769;SDS011;66386;52.122;5.420;2023-06-14T08:10:33;4.27;;;1.70;;
71769;SDS011;66386;52.122;5.420;2023-06-14T08:13:00;2.83;;;1.70;;
71769;SDS011;66386;52.122;5.420;2023-06-14T08:15:26;3.15;;;1.60;;
71769;SDS011;66386;52.122;5.420;2023-06-14T08:17:53;3.83;;;1.60;;
71769;SDS011;66386;52.122;5.420;2023-06-14T08:20:20;3.05;;;1.80;;
71769;SDS011;66386;52.122;5.420;2023-06-14T08:22:46;2.80;;;1.40;;
71769;SDS011;66386;52.122;5.420;2023-06-14T08:25:14;3.25;;;1.90;;
71769;SDS011;66386;52.122;5.420;2023-06-14T08:27:41;2.83;;;1.60;;
71769;SDS011;66386;52.122;5.420;2023-06-14T08:30:08;3.50;;;1.73;;
71769;SDS011;66386;52.122;5.420;2023-06-14T08:32:35;4.28;;;1.65;;
71769;SDS011;66386;52.122;5.420;2023-06-14T08:35:02;2.27;;;1.80;;
71769;SDS011;66386;52.122;5.420;2023-06-14T08:37:31;2.17;;;1.40;;
71769;SDS011;66386;52.122;5.420;2023-06-14T08:39:59;2.67;;;1.60;;
71769;SDS011;66386;52.122;5.420;2023-06-14T08:42:26;2.53;;;1.40;;
71769;SDS011;66386;52.122;5.420;2023-06-14T08:44:57;3.10;;;1.60;;
71769;SDS011;66386;52.122;5.420;2023-06-14T08:47:24;1.90;;;1.73;;
71769;SDS011;66386;52.122;5.420;2023-06-14T08:49:53;3.00;;;1.38;;
71769;SDS011;66386;52.122;5.420;2023-06-14T08:52:23;4.00;;;1.70;;
71769;SDS011;66386;52.122;5.420;2023-06-14T08:54:56;2.85;;;1.60;;
71769;SDS011;66386;52.122;5.420;2023-06-14T08:57:23;1.60;;;1.50;;
71769;SDS011;66386;52.122;5.420;2023-06-14T08:59:51;2.20;;;1.40;;
71769;SDS011;66386;52.122;5.420;2023-06-14T09:02:19;3.30;;;1.77;;
71769;SDS011;66386;52.122;5.420;2023-06-14T09:04:48;3.05;;;1.45;;
71769;SDS011;66386;52.122;5.420;2023-06-14T09:07:15;1.65;;;1.40;;
71769;SDS011;66386;52.122;5.420;2023-06-14T09:09:42;1.92;;;1.23;;
71769;SDS011;66386;52.122;5.420;2023-06-14T09:12:27;2.20;;;1.30;;
71769;SDS011;66386;52.122;5.420;2023-06-14T09:14:54;1.40;;;1.30;;
71769;SDS011;66386;52.122;5.420;2023-06-14T09:17:20;1.50;;;1.40;;
71769;SDS011;66386;52.122;5.420;2023-06-14T09:19:49;1.73;;;1.40;;
71769;SDS011;66386;52.122;5.420;2023-06-14T09:22:16;1.50;;;1.40;;
71769;SDS011;66386;52.122;5.420;2023-06-14T09:24:43;1.50;;;1.40;;
71769;SDS011;66386;52.122;5.420;2023-06-14T09:27:14;1.80;;;1.40;;
71769;SDS011;66386;52.122;5.420;2023-06-14T09:29:41;2.67;;;1.27;;
71769;SDS011;66386;52.122;5.420;2023-06-14T09:32:08;3.17;;;1.30;;
71769;SDS011;66386;52.122;5.420;2023-06-14T09:34:35;1.85;;;1.45;;
71769;SDS011;66386;52.122;5.420;2023-06-14T09:37:02;1.20;;;1.20;;
71769;SDS011;66386;52.122;5.420;2023-06-14T09:39:29;2.33;;;1.70;;
71769;SDS011;66386;52.122;5.420;2023-06-14T09:41:56;1.75;;;1.40;;
71769;SDS011;66386;52.122;5.420;2023-06-14T09:44:22;4.40;;;1.25;;
71769;SDS011;66386;52.122;5.420;2023-06-14T09:46:55;2.67;;;1.20;;
71769;SDS011;66386;52.122;5.420;2023-06-14T09:49:22;2.00;;;1.40;;
71769;SDS011;66386;52.122;5.420;2023-06-14T09:51:50;1.42;;;1.33;;
71769;SDS011;66386;52.122;5.420;2023-06-14T09:54:20;1.40;;;1.30;;
71769;SDS011;66386;52.122;5.420;2023-06-14T09:56:49;2.80;;;1.17;;
71769;SDS011;66386;52.122;5.420;2023-06-14T09:59:21;3.28;;;1.20;;
71769;SDS011;66386;52.122;5.420;2023-06-14T10:01:56;1.20;;;1.10;;
71769;SDS011;66386;52.122;5.420;2023-06-14T10:04:26;2.75;;;1.30;;
71769;SDS011;66386;52.122;5.420;2023-06-14T10:06:56;1.77;;;1.48;;
71769;SDS011;66386;52.122;5.420;2023-06-14T10:09:23;1.77;;;1.27;;
71769;SDS011;66386;52.122;5.420;2023-06-14T10:11:50;3.60;;;1.40;;
71769;SDS011;66386;52.122;5.420;2023-06-14T10:14:17;2.20;;;1.30;;
71769;SDS011;66386;52.122;5.420;2023-06-14T10:16:56;1.27;;;1.00;;
71769;SDS011;66386;52.122;5.420;2023-06-14T10:19:30;2.13;;;1.20;;
71769;SDS011;66386;52.122;5.420;2023-06-14T10:22:19;2.33;;;0.90;;
71769;SDS011;66386;52.122;5.420;2023-06-14T10:24:49;3.10;;;1.25;;
71769;SDS011;66386;52.122;5.420;2023-06-14T10:27:16;1.20;;;0.80;;
71769;SDS011;66386;52.122;5.420;2023-06-14T10:32:20;3.22;;;1.20;;
71769;SDS011;66386;52.122;5.420;2023-06-14T10:35:05;1.17;;;1.00;;
71769;SDS011;66386;52.122;5.420;2023-06-14T10:37:35;1.85;;;1.00;;
71769;SDS011;66386;52.122;5.420;2023-06-14T10:40:02;2.90;;;0.90;;
71769;SDS011;66386;52.122;5.420;2023-06-14T10:42:33;2.75;;;1.20;;
71769;SDS011;66386;52.122;5.420;2023-06-14T10:45:00;2.10;;;1.00;;
71769;SDS011;66386;52.122;5.420;2023-06-14T10:47:31;2.75;;;1.17;;
71769;SDS011;66386;52.122;5.420;2023-06-14T10:52:28;1.10;;;1.00;;
71769;SDS011;66386;52.122;5.420;2023-06-14T10:57:25;2.78;;;0.80;;
71769;SDS011;66386;52.122;5.420;2023-06-14T10:59:51;1.55;;;0.90;;
71769;SDS011;66386;52.122;5.420;2023-06-14T11:02:30;2.78;;;1.15;;
71769;SDS011;66386;52.122;5.420;2023-06-14T11:05:04;1.47;;;0.90;;
71769;SDS011;66386;52.122;5.420;2023-06-14T11:07:51;1.58;;;0.75;;
71769;SDS011;66386;52.122;5.420;2023-06-14T11:12:54;2.13;;;1.55;;
71769;SDS011;66386;52.122;5.420;2023-06-14T11:15:32;2.88;;;0.80;;
71769;SDS011;66386;52.122;5.420;2023-06-14T11:18:03;1.50;;;1.10;;
71769;SDS011;66386;52.122;5.420;2023-06-14T11:20:33;3.72;;;0.90;;
71769;SDS011;66386;52.122;5.420;2023-06-14T11:23:04;4.63;;;1.00;;
71769;SDS011;66386;52.122;5.420;2023-06-14T11:25:30;2.45;;;0.70;;
71769;SDS011;66386;52.122;5.420;2023-06-14T11:27:57;1.50;;;0.90;;
71769;SDS011;66386;52.122;5.420;2023-06-14T11:30:25;0.83;;;0.83;;
71769;SDS011;66386;52.122;5.420;2023-06-14T11:32:52;2.28;;;0.93;;
71769;SDS011;66386;52.122;5.420;2023-06-14T11:35:24;1.20;;;1.02;;
71769;SDS011;66386;52.122;5.420;2023-06-14T11:37:57;1.63;;;0.93;;
71769;SDS011;66386;52.122;5.420;2023-06-14T11:40:24;1.65;;;1.05;;
71769;SDS011;66386;52.122;5.420;2023-06-14T11:42:58;1.43;;;1.13;;
71769;SDS011;66386;52.122;5.420;2023-06-14T11:45:26;1.70;;;1.13;;
71769;SDS011;66386;52.122;5.420;2023-06-14T11:47:54;2.35;;;0.70;;
71769;SDS011;66386;52.122;5.420;2023-06-14T11:50:23;1.85;;;1.10;;
71769;SDS011;66386;52.122;5.420;2023-06-14T11:52:56;4.35;;;1.00;;
71769;SDS011;66386;52.122;5.420;2023-06-14T11:55:26;3.20;;;1.10;;
71769;SDS011;66386;52.122;5.420;2023-06-14T11:57:55;1.30;;;1.00;;
71769;SDS011;66386;52.122;5.420;2023-06-14T12:00:25;2.20;;;1.10;;
71769;SDS011;66386;52.122;5.420;2023-06-14T12:02:53;2.15;;;1.00;;
71769;SDS011;66386;52.122;5.420;2023-06-14T12:05:22;2.33;;;1.10;;
71769;SDS011;66386;52.122;5.420;2023-06-14T12:07:50;1.60;;;0.90;;
71769;SDS011;66386;52.122;5.420;2023-06-14T12:10:19;1.98;;;1.00;;
71769;SDS011;66386;52.122;5.420;2023-06-14T12:12:46;2.28;;;1.10;;
71769;SDS011;66386;52.122;5.420;2023-06-14T12:15:12;2.25;;;0.98;;
71769;SDS011;66386;52.122;5.420;2023-06-14T12:17:41;3.45;;;0.90;;
71769;SDS011;66386;52.122;5.420;2023-06-14T12:20:09;2.53;;;0.80;;
71769;SDS011;66386;52.122;5.420;2023-06-14T12:25:23;1.30;;;1.00;;
71769;SDS011;66386;52.122;5.420;2023-06-14T12:27:54;1.08;;;0.85;;
71769;SDS011;66386;52.122;5.420;2023-06-14T12:30:21;3.22;;;0.88;;
71769;SDS011;66386;52.122;5.420;2023-06-14T12:32:47;1.50;;;1.03;;
71769;SDS011;66386;52.122;5.420;2023-06-14T12:35:15;1.33;;;0.82;;
71769;SDS011;66386;52.122;5.420;2023-06-14T12:37:42;1.92;;;1.08;;
71769;SDS011;66386;52.122;5.420;2023-06-14T12:40:08;2.70;;;1.20;;
71769;SDS011;66386;52.122;5.420;2023-06-14T12:42:37;1.70;;;1.02;;
71769;SDS011;66386;52.122;5.420;2023-06-14T12:45:04;2.20;;;0.80;;
71769;SDS011;66386;52.122;5.420;2023-06-14T12:47:31;2.25;;;1.10;;
71769;SDS011;66386;52.122;5.420;2023-06-14T12:49:58;4.00;;;0.80;;
71769;SDS011;66386;52.122;5.420;2023-06-14T12:52:24;2.67;;;0.80;;
71769;SDS011;66386;52.122;5.420;2023-06-14T12:54:51;6.55;;;1.20;;
71769;SDS011;66386;52.122;5.420;2023-06-14T12:57:17;4.17;;;0.80;;
71769;SDS011;66386;52.122;5.420;2023-06-14T12:59:44;2.28;;;0.60;;
71769;SDS011;66386;52.122;5.420;2023-06-14T13:02:13;2.30;;;0.93;;
71769;SDS011;66386;52.122;5.420;2023-06-14T13:04:42;2.03;;;0.88;;
71769;SDS011;66386;52.122;5.420;2023-06-14T13:07:09;1.25;;;0.60;;
71769;SDS011;66386;52.122;5.420;2023-06-14T13:09:37;1.43;;;0.63;;
71769;SDS011;66386;52.122;5.420;2023-06-14T13:12:04;2.60;;;0.98;;
71769;SDS011;66386;52.122;5.420;2023-06-14T13:14:31;2.38;;;0.80;;
71769;SDS011;66386;52.122;5.420;2023-06-14T13:16:58;2.40;;;0.90;;
71769;SDS011;66386;52.122;5.420;2023-06-14T13:19:24;1.50;;;0.88;;
71769;SDS011;66386;52.122;5.420;2023-06-14T13:21:51;1.20;;;0.80;;
71769;SDS011;66386;52.122;5.420;2023-06-14T13:24:18;2.70;;;0.60;;
71769;SDS011;66386;52.122;5.420;2023-06-14T13:26:44;1.13;;;0.85;;
71769;SDS011;66386;52.122;5.420;2023-06-14T13:29:11;0.95;;;0.68;;
71769;SDS011;66386;52.122;5.420;2023-06-14T13:31:37;3.70;;;1.10;;
71769;SDS011;66386;52.122;5.420;2023-06-14T13:34:04;1.47;;;0.83;;
71769;SDS011;66386;52.122;5.420;2023-06-14T13:36:31;3.72;;;1.17;;
71769;SDS011;66386;52.122;5.420;2023-06-14T13:38:58;1.70;;;0.98;;
71769;SDS011;66386;52.122;5.420;2023-06-14T13:41:25;2.38;;;1.00;;
71769;SDS011;66386;52.122;5.420;2023-06-14T13:43:59;2.85;;;1.58;;
71769;SDS011;66386;52.122;5.420;2023-06-14T13:46:26;1.83;;;0.70;;
71769;SDS011;66386;52.122;5.420;2023-06-14T13:48:53;2.00;;;1.02;;
71769;SDS011;66386;52.122;5.420;2023-06-14T13:51:20;1.83;;;1.23;;
71769;SDS011;66386;52.122;5.420;2023-06-14T13:53:50;2.83;;;0.95;;
71769;SDS011;66386;52.122;5.420;2023-06-14T13:56:17;1.30;;;0.90;;
71769;SDS011;66386;52.122;5.420;2023-06-14T13:58:44;2.67;;;0.83;;
71769;SDS011;66386;52.122;5.420;2023-06-14T14:01:11;1.83;;;0.90;;
71769;SDS011;66386;52.122;5.420;2023-06-14T14:03:38;5.88;;;1.40;;
71769;SDS011;66386;52.122;5.420;2023-06-14T14:06:05;1.88;;;0.73;;
71769;SDS011;66386;52.122;5.420;2023-06-14T14:08:33;2.53;;;0.90;;
71769;SDS011;66386;52.122;5.420;2023-06-14T14:10:59;2.90;;;0.80;;
71769;SDS011;66386;52.122;5.420;2023-06-14T14:13:27;0.82;;;0.70;;
71769;SDS011;66386;52.122;5.420;2023-06-14T14:15:53;4.38;;;1.05;;
71769;SDS011;66386;52.122;5.420;2023-06-14T14:18:20;2.88;;;0.80;;
71769;SDS011;66386;52.122;5.420;2023-06-14T14:20:48;2.53;;;0.70;;
71769;SDS011;66386;52.122;5.420;2023-06-14T14:23:14;1.97;;;0.80;;
71769;SDS011;66386;52.122;5.420;2023-06-14T14:25:41;3.33;;;0.60;;
71769;SDS011;66386;52.122;5.420;2023-06-14T14:28:08;1.40;;;0.70;;
71769;SDS011;66386;52.122;5.420;2023-06-14T14:30:34;3.75;;;0.80;;
71769;SDS011;66386;52.122;5.420;2023-06-14T14:33:01;1.40;;;0.80;;
71769;SDS011;66386;52.122;5.420;2023-06-14T14:35:27;0.97;;;0.70;;
71769;SDS011;66386;52.122;5.420;2023-06-14T14:37:56;4.32;;;1.08;;
71769;SDS011;66386;52.122;5.420;2023-06-14T14:40:23;1.10;;;0.70;;
71769;SDS011;66386;52.122;5.420;2023-06-14T14:42:49;1.13;;;0.80;;
71769;SDS011;66386;52.122;5.420;2023-06-14T14:45:16;1.80;;;0.77;;
71769;SDS011;66386;52.122;5.420;2023-06-14T14:47:42;2.07;;;0.67;;
71769;SDS011;66386;52.122;5.420;2023-06-14T14:50:09;2.88;;;0.70;;
71769;SDS011;66386;52.122;5.420;2023-06-14T14:52:36;0.93;;;0.60;;
71769;SDS011;66386;52.122;5.420;2023-06-14T14:55:03;1.35;;;0.70;;
71769;SDS011;66386;52.122;5.420;2023-06-14T14:57:29;0.95;;;0.70;;
71769;SDS011;66386;52.122;5.420;2023-06-14T14:59:57;1.47;;;0.67;;
71769;SDS011;66386;52.122;5.420;2023-06-14T15:02:23;1.05;;;0.82;;
71769;SDS011;66386;52.122;5.420;2023-06-14T15:04:50;1.00;;;0.60;;
71769;SDS011;66386;52.122;5.420;2023-06-14T15:07:16;2.13;;;0.60;;
71769;SDS011;66386;52.122;5.420;2023-06-14T15:09:43;1.83;;;0.70;;
71769;SDS011;66386;52.122;5.420;2023-06-14T15:12:09;0.70;;;0.50;;